createdAt,value
2023-04-25T00:00:36.427Z,10.36
2023-04-25T00:03:06.586Z,10.34
2023-04-25T00:05:35.419Z,10.39
2023-04-25T00:08:03.994Z,10.31
2023-04-25T00:10:32.313Z,10.24
2023-04-25T00:13:03.599Z,10.25
2023-04-25T00:15:33.696Z,10.76
2023-04-25T00:18:02.342Z,11.07
2023-04-25T00:20:31.137Z,11.07
2023-04-25T00:22:59.928Z,11.07
2023-04-25T00:25:28.084Z,10.92
2023-04-25T00:27:56.680Z,10.76
2023-04-25T00:30:25.209Z,10.85
2023-04-25T00:32:55.590Z,10.98
2023-04-25T00:35:24.258Z,10.70
2023-04-25T00:37:52.462Z,10.25
2023-04-25T00:40:21.112Z,10.13
2023-04-25T00:42:50.056Z,10.15
2023-04-25T00:45:18.797Z,10.14
2023-04-25T00:47:48.489Z,10.51
2023-04-25T00:50:18.730Z,10.04
2023-04-25T00:52:46.955Z,9.78
2023-04-25T00:55:16.927Z,9.96
2023-04-25T00:57:45.596Z,10.47
2023-04-25T01:00:15.512Z,10.63
2023-04-25T01:02:44.393Z,10.63
2023-04-25T01:05:13.467Z,10.14
2023-04-25T01:07:43.035Z,9.91
2023-04-25T01:10:11.647Z,9.69
2023-04-25T01:12:40.210Z,9.73
2023-04-25T01:15:09.104Z,9.68
2023-04-25T01:17:38.011Z,9.65
2023-04-25T01:20:08.367Z,9.59
2023-04-25T01:22:38.278Z,10.41
2023-04-25T01:25:07.384Z,9.67
2023-04-25T01:27:35.978Z,9.63
2023-04-25T01:30:04.859Z,9.62
2023-04-25T01:32:39.435Z,9.71
2023-04-25T01:35:10.483Z,9.65
2023-04-25T01:37:40.245Z,9.62
2023-04-25T01:40:09.549Z,9.25
2023-04-25T01:42:39.311Z,9.42
2023-04-25T01:45:08.978Z,9.54
2023-04-25T01:47:37.535Z,9.58
2023-04-25T01:50:06.594Z,9.68
2023-04-25T01:52:35.004Z,9.46
2023-04-25T01:55:05.452Z,9.65
2023-04-25T01:57:36.729Z,9.37
2023-04-25T02:00:06.858Z,9.38
2023-04-25T02:02:41.693Z,9.32
2023-04-25T02:05:21.521Z,9.73
2023-04-25T02:07:49.995Z,9.21
2023-04-25T02:10:19.985Z,9.36
2023-04-25T02:12:57.352Z,9.38
2023-04-25T02:15:52.318Z,9.30
2023-04-25T02:18:22.339Z,9.52
2023-04-25T02:20:51.023Z,9.66
2023-04-25T02:23:20.244Z,9.54
2023-04-25T02:25:49.905Z,9.99
2023-04-25T02:28:18.829Z,9.51
2023-04-25T02:30:47.553Z,9.14
2023-04-25T02:33:18.009Z,9.13
2023-04-25T02:35:46.624Z,9.13
2023-04-25T02:38:15.736Z,9.05
2023-04-25T02:40:43.967Z,9.24
2023-04-25T02:43:14.020Z,9.20
2023-04-25T02:45:42.664Z,9.31
2023-04-25T02:48:11.360Z,9.49
2023-04-25T02:50:40.010Z,9.60
2023-04-25T02:53:08.594Z,9.61
2023-04-25T02:55:43.102Z,9.57
2023-04-25T02:58:13.610Z,9.52
2023-04-25T03:00:47.289Z,9.53
2023-04-25T03:03:18.877Z,9.47
2023-04-25T03:05:48.044Z,9.55
2023-04-25T03:08:18.640Z,9.54
2023-04-25T03:10:47.017Z,9.99
2023-04-25T03:13:19.151Z,9.52
2023-04-25T03:15:48.546Z,9.58
2023-04-25T03:18:17.077Z,9.58
2023-04-25T03:20:45.821Z,9.61
2023-04-25T03:23:14.408Z,9.66
2023-04-25T03:25:44.388Z,9.58
2023-04-25T03:28:14.469Z,9.54
2023-04-25T03:30:44.755Z,9.59
2023-04-25T03:33:13.517Z,9.81
2023-04-25T03:35:42.217Z,9.87
2023-04-25T03:38:10.868Z,9.89
2023-04-25T03:40:41.623Z,9.80
2023-04-25T03:43:23.084Z,10.06
2023-04-25T03:45:58.769Z,9.93
2023-04-25T03:48:27.903Z,10.16
2023-04-25T03:50:56.656Z,9.69
2023-04-25T03:53:25.266Z,9.75
2023-04-25T03:56:11.883Z,9.61
2023-04-25T03:58:41.833Z,9.53
2023-04-25T04:01:11.990Z,9.60
2023-04-25T04:03:42.311Z,9.71
2023-04-25T04:06:11.907Z,9.72
2023-04-25T04:08:45.443Z,9.47
2023-04-25T04:11:14.313Z,9.57
2023-04-25T04:13:42.529Z,9.77
2023-04-25T04:16:12.672Z,9.72
2023-04-25T04:18:41.613Z,9.64
2023-04-25T04:21:10.661Z,9.40
2023-04-25T04:23:42.374Z,9.46
2023-04-25T04:26:12.494Z,9.71
2023-04-25T04:29:00.438Z,9.68
2023-04-25T04:31:47.303Z,9.63
2023-04-25T04:34:17.624Z,9.84
2023-04-25T04:36:47.993Z,9.82
2023-04-25T04:39:16.826Z,9.72
2023-04-25T04:41:57.225Z,9.66
2023-04-25T04:44:45.748Z,9.48
2023-04-25T04:47:35.134Z,9.44
2023-04-25T04:50:21.172Z,9.44
2023-04-25T04:53:24.857Z,9.18
2023-04-25T04:55:53.851Z,9.03
2023-04-25T04:58:25.076Z,9.26
2023-04-25T05:01:17.255Z,9.26
2023-04-25T05:04:05.032Z,9.32
2023-04-25T05:06:52.532Z,9.35
2023-04-25T05:09:27.712Z,9.40
2023-04-25T05:12:06.612Z,9.40
2023-04-25T05:15:04.494Z,9.30
2023-04-25T05:17:43.307Z,9.25
2023-04-25T05:20:24.947Z,8.98
2023-04-25T05:23:13.403Z,9.18
2023-04-25T05:25:44.796Z,9.28
2023-04-25T05:28:31.722Z,9.39
2023-04-25T05:31:26.753Z,9.12
2023-04-25T05:34:10.119Z,9.30
2023-04-25T05:36:59.960Z,9.44
2023-04-25T05:39:29.271Z,9.34
2023-04-25T05:42:17.352Z,9.71
2023-04-25T05:45:12.309Z,10.05
2023-04-25T05:47:52.920Z,10.15
2023-04-25T05:50:35.131Z,10.45
2023-04-25T05:53:20.641Z,9.75
2023-04-25T05:55:55.323Z,10.27
2023-04-25T05:58:26.776Z,10.32
2023-04-25T06:00:56.657Z,10.15
2023-04-25T06:03:25.814Z,10.29
2023-04-25T06:05:55.260Z,10.10
2023-04-25T06:08:25.336Z,10.37
2023-04-25T06:10:53.570Z,10.27
2023-04-25T06:13:22.125Z,10.43
2023-04-25T06:15:50.841Z,10.30
2023-04-25T06:18:19.564Z,9.99
2023-04-25T06:20:48.465Z,9.88
2023-04-25T06:23:18.398Z,9.63
2023-04-25T06:25:57.317Z,9.34
2023-04-25T06:28:26.365Z,9.25
2023-04-25T06:30:54.917Z,9.18
2023-04-25T06:33:25.466Z,8.84
2023-04-25T06:35:55.431Z,8.95
2023-04-25T06:38:27.732Z,8.63
2023-04-25T06:40:59.754Z,8.76
2023-04-25T06:43:34.230Z,8.82
2023-04-25T06:46:12.089Z,9.19
2023-04-25T06:48:46.352Z,9.10
2023-04-25T06:51:15.458Z,9.11
2023-04-25T06:53:44.939Z,8.53
2023-04-25T06:56:24.394Z,8.54
2023-04-25T06:58:59.493Z,8.57
2023-04-25T07:01:36.942Z,8.60
2023-04-25T07:04:09.544Z,8.20
2023-04-25T07:06:43.813Z,8.91
2023-04-25T07:09:13.831Z,8.98
2023-04-25T07:11:46.718Z,8.88
2023-04-25T07:14:16.146Z,8.76
2023-04-25T07:16:44.402Z,9.20
2023-04-25T07:19:13.535Z,9.24
2023-04-25T07:21:42.199Z,9.59
2023-04-25T07:24:10.974Z,8.78
2023-04-25T07:26:43.856Z,8.50
2023-04-25T07:29:32.589Z,8.79
2023-04-25T07:32:02.480Z,9.45
2023-04-25T07:34:31.208Z,9.82
2023-04-25T07:37:00.438Z,9.87
2023-04-25T07:39:34.436Z,9.33
2023-04-25T07:42:03.303Z,9.28
2023-04-25T07:44:39.364Z,9.43
2023-04-25T07:47:09.594Z,8.97
2023-04-25T07:49:38.563Z,8.78
2023-04-25T07:52:07.554Z,8.81
2023-04-25T07:54:37.511Z,9.18
2023-04-25T07:57:15.091Z,9.13
2023-04-25T07:59:45.553Z,9.05
2023-04-25T08:02:14.414Z,8.31
2023-04-25T08:04:42.933Z,8.17
2023-04-25T08:07:14.548Z,8.79
2023-04-25T08:09:54.988Z,8.82
2023-04-25T08:12:28.457Z,8.56
2023-04-25T08:14:59.271Z,8.53
2023-04-25T08:17:33.107Z,8.65
2023-04-25T08:20:01.962Z,9.21
2023-04-25T08:22:32.298Z,9.53
2023-04-25T08:25:17.633Z,8.68
2023-04-25T08:27:46.183Z,8.97
2023-04-25T08:30:16.562Z,9.00
2023-04-25T08:32:45.342Z,9.55
2023-04-25T08:35:26.215Z,9.40
2023-04-25T08:37:54.444Z,10.14
2023-04-25T08:40:27.138Z,9.38
2023-04-25T08:43:12.452Z,9.34
2023-04-25T08:45:43.620Z,9.11
2023-04-25T08:48:17.875Z,8.79
2023-04-25T08:50:48.011Z,9.69
2023-04-25T08:53:19.857Z,9.54
2023-04-25T08:55:49.189Z,9.73
2023-04-25T08:58:17.744Z,9.53
2023-04-25T09:00:47.876Z,9.70
2023-04-25T09:03:17.333Z,9.50
2023-04-25T09:05:48.175Z,10.16
2023-04-25T09:08:18.355Z,10.09
2023-04-25T09:10:46.710Z,10.56
2023-04-25T09:13:16.090Z,10.37
2023-04-25T09:16:20.118Z,10.15
2023-04-25T09:19:13.568Z,9.77
2023-04-25T09:21:42.536Z,9.24
2023-04-25T09:24:11.332Z,9.55
2023-04-25T09:26:39.953Z,9.72
2023-04-25T09:29:09.166Z,9.75
2023-04-25T09:31:42.766Z,9.57
2023-04-25T09:34:16.747Z,9.21
2023-04-25T09:36:50.494Z,8.90
2023-04-25T09:39:31.986Z,9.21
2023-04-25T09:42:08.121Z,9.36
2023-04-25T09:44:38.098Z,9.40
2023-04-25T09:47:09.182Z,9.34
2023-04-25T09:49:37.459Z,9.64
2023-04-25T09:52:09.683Z,9.51
2023-04-25T09:54:53.157Z,9.29
2023-04-25T09:57:28.663Z,9.27
2023-04-25T09:59:59.138Z,9.16
2023-04-25T10:02:33.968Z,9.54
2023-04-25T10:05:08.806Z,9.31
2023-04-25T10:07:40.718Z,9.38
2023-04-25T10:10:15.120Z,8.95
2023-04-25T10:12:45.341Z,8.62
2023-04-25T10:15:14.041Z,8.64
2023-04-25T10:17:45.147Z,8.75
2023-04-25T10:20:14.178Z,8.81
2023-04-25T10:22:43.787Z,8.62
2023-04-25T10:25:12.677Z,9.26
2023-04-25T10:27:49.409Z,9.26
2023-04-25T10:30:18.034Z,9.11
2023-04-25T10:32:48.365Z,9.26
2023-04-25T10:35:17.730Z,9.28
2023-04-25T10:38:05.776Z,9.45
2023-04-25T10:40:34.545Z,9.48
2023-04-25T10:43:21.488Z,9.30
2023-04-25T10:45:59.131Z,9.02
2023-04-25T10:48:29.234Z,9.32
2023-04-25T10:51:09.374Z,9.61
2023-04-25T10:53:38.033Z,9.62
2023-04-25T10:56:12.523Z,9.72
2023-04-25T10:58:45.521Z,9.90
2023-04-25T11:01:14.869Z,10.38
2023-04-25T11:03:46.426Z,10.66
2023-04-25T11:06:19.316Z,10.55
2023-04-25T11:08:50.378Z,10.78
2023-04-25T11:11:19.899Z,10.91
2023-04-25T11:13:50.290Z,11.18
2023-04-25T11:16:27.427Z,11.67
2023-04-25T11:19:00.891Z,11.19
2023-04-25T11:21:29.940Z,11.27
2023-04-25T11:23:58.636Z,11.57
2023-04-25T11:26:27.266Z,11.78
2023-04-25T11:28:59.382Z,11.96
2023-04-25T11:31:28.058Z,11.71
2023-04-25T11:33:57.199Z,11.62
2023-04-25T11:36:28.003Z,11.17
2023-04-25T11:38:56.620Z,11.01
2023-04-25T11:41:25.557Z,11.05
2023-04-25T11:43:55.554Z,11.09
2023-04-25T11:46:24.489Z,11.28
2023-04-25T11:48:53.343Z,11.39
2023-04-25T11:51:22.184Z,11.11
2023-04-25T11:53:52.367Z,11.01
2023-04-25T11:56:21.355Z,10.68
2023-04-25T11:59:02.116Z,10.67
2023-04-25T12:01:33.258Z,10.42
2023-04-25T12:04:14.785Z,10.68
2023-04-25T12:06:44.043Z,10.39
2023-04-25T12:09:14.563Z,10.60
2023-04-25T12:11:43.306Z,10.91
2023-04-25T12:14:11.870Z,10.82
2023-04-25T12:16:43.890Z,10.65
2023-04-25T12:19:15.706Z,10.48
2023-04-25T12:24:21.061Z,10.72
2023-04-25T12:26:51.394Z,10.97
2023-04-25T12:29:20.635Z,11.16
2023-04-25T12:31:49.025Z,11.07
2023-04-25T12:34:18.050Z,11.13
2023-04-25T12:36:46.651Z,10.95
2023-04-25T12:39:18.468Z,10.92
2023-04-25T12:41:48.727Z,10.53
2023-04-25T12:44:17.357Z,10.36
2023-04-25T12:46:46.282Z,10.19
2023-04-25T12:49:18.717Z,10.37
2023-04-25T12:51:47.966Z,10.38
2023-04-25T12:54:16.625Z,10.36
2023-04-25T12:56:45.268Z,10.62
2023-04-25T12:59:15.259Z,10.81
2023-04-25T13:01:43.972Z,10.93
2023-04-25T13:04:12.705Z,10.96
2023-04-25T13:06:41.391Z,11.13
2023-04-25T13:09:09.947Z,11.04
2023-04-25T13:11:38.552Z,10.72
2023-04-25T13:14:07.823Z,11.03
2023-04-25T13:16:37.812Z,10.77
2023-04-25T13:19:08.541Z,10.78
2023-04-25T13:21:37.236Z,10.67
2023-04-25T13:24:06.058Z,11.11
2023-04-25T13:26:34.730Z,11.61
2023-04-25T13:29:04.706Z,11.68
2023-04-25T13:31:33.291Z,11.71
2023-04-25T13:34:03.416Z,11.84
2023-04-25T13:36:32.990Z,12.00
2023-04-25T13:39:01.712Z,11.97
2023-04-25T13:41:30.354Z,12.33
2023-04-25T13:43:58.921Z,12.45
2023-04-25T13:46:44.600Z,11.96
2023-04-25T13:49:16.683Z,12.06
2023-04-25T13:51:45.902Z,12.17
2023-04-25T13:54:14.524Z,12.17
2023-04-25T13:56:43.526Z,12.11
2023-04-25T13:59:12.403Z,12.12
2023-04-25T14:01:40.710Z,11.96
2023-04-25T14:04:09.467Z,11.84
2023-04-25T14:06:39.490Z,12.08
2023-04-25T14:09:11.197Z,12.32
2023-04-25T14:11:40.101Z,12.41
2023-04-25T14:14:08.712Z,12.41
2023-04-25T14:16:36.890Z,12.54
2023-04-25T14:19:05.530Z,12.53
2023-04-25T14:21:34.607Z,12.44
2023-04-25T14:24:06.017Z,12.53
2023-04-25T14:26:35.626Z,12.63
2023-04-25T14:29:04.160Z,12.62
2023-04-25T14:31:32.509Z,12.68
2023-04-25T14:34:01.189Z,12.60
2023-04-25T14:36:30.340Z,12.37
2023-04-25T14:38:58.908Z,12.15
2023-04-25T14:41:28.984Z,11.91
2023-04-25T14:43:58.002Z,11.60
2023-04-25T14:46:26.809Z,11.37
2023-04-25T14:48:57.026Z,11.24
2023-04-25T14:52:29.489Z,10.97
2023-04-25T14:54:58.625Z,10.81
2023-04-25T14:57:27.850Z,10.54
2023-04-25T14:59:57.269Z,10.54
2023-04-25T15:02:27.301Z,10.55
2023-04-25T15:04:57.232Z,10.43
2023-04-25T15:07:26.975Z,10.20
2023-04-25T15:09:57.878Z,10.40
2023-04-25T15:12:29.350Z,10.42
2023-04-25T15:14:58.653Z,10.50
2023-04-25T15:17:27.936Z,10.41
2023-04-25T15:19:56.521Z,10.14
2023-04-25T15:22:26.020Z,10.35
2023-04-25T15:24:57.315Z,10.13
2023-04-25T15:27:28.247Z,9.77
2023-04-25T15:29:57.592Z,9.75
2023-04-25T15:32:26.776Z,9.92
2023-04-25T15:34:55.467Z,9.73
2023-04-25T15:37:24.488Z,9.82
2023-04-25T15:40:07.489Z,9.79
2023-04-25T15:42:36.833Z,9.60
2023-04-25T15:45:06.982Z,9.45
2023-04-25T15:47:37.069Z,9.33
2023-04-25T15:50:08.489Z,9.13
2023-04-25T15:52:38.101Z,9.04
2023-04-25T15:55:09.496Z,8.88
2023-04-25T15:57:39.078Z,8.74
2023-04-25T16:00:11.316Z,8.50
2023-04-25T16:02:43.805Z,8.46
2023-04-25T16:05:14.745Z,8.37
2023-04-25T16:07:44.648Z,8.45
2023-04-25T16:10:17.340Z,8.30
2023-04-25T16:12:48.161Z,8.35
2023-04-25T16:15:17.384Z,8.44
2023-04-25T16:17:46.607Z,8.09
2023-04-25T16:20:15.791Z,8.34
2023-04-25T16:22:44.912Z,8.25
2023-04-25T16:25:15.275Z,8.28
2023-04-25T16:27:44.570Z,8.21
2023-04-25T16:30:14.229Z,7.91
2023-04-25T16:32:44.845Z,8.12
2023-04-25T16:35:14.733Z,8.04
2023-04-25T16:37:45.006Z,7.53
2023-04-25T16:40:15.703Z,7.67
2023-04-25T16:42:44.619Z,7.62
2023-04-25T16:45:14.901Z,7.43
2023-04-25T16:47:43.787Z,7.70
2023-04-25T16:50:14.457Z,7.72
2023-04-25T16:52:46.049Z,7.54
2023-04-25T16:55:16.434Z,7.66
2023-04-25T16:57:45.494Z,7.09
2023-04-25T17:00:15.917Z,7.16
2023-04-25T17:02:45.173Z,7.21
2023-04-25T17:05:14.344Z,7.33
2023-04-25T17:07:42.877Z,7.16
2023-04-25T17:10:13.312Z,7.24
2023-04-25T17:12:43.479Z,7.20
2023-04-25T17:15:12.950Z,7.30
2023-04-25T17:17:42.110Z,7.15
2023-04-25T17:20:11.802Z,7.00
2023-04-25T17:22:40.397Z,7.33
2023-04-25T17:25:11.130Z,7.19
2023-04-25T17:27:40.279Z,7.22
2023-04-25T17:30:12.732Z,7.01
2023-04-25T17:32:41.692Z,6.99
2023-04-25T17:35:11.400Z,7.18
2023-04-25T17:37:40.996Z,7.13
2023-04-25T17:40:12.308Z,7.01
2023-04-25T17:42:41.877Z,7.01
2023-04-25T17:45:13.253Z,7.16
2023-04-25T17:47:42.631Z,7.21
2023-04-25T17:50:12.745Z,7.24
2023-04-25T17:52:41.517Z,7.09
2023-04-25T17:55:11.345Z,7.16
2023-04-25T17:57:40.471Z,7.12
2023-04-25T18:00:13.219Z,7.35
2023-04-25T18:02:42.303Z,7.45
2023-04-25T18:05:11.649Z,7.36
2023-04-25T18:07:40.204Z,7.09
2023-04-25T18:10:11.870Z,7.13
2023-04-25T18:12:41.301Z,7.09
2023-04-25T18:15:12.674Z,7.22
2023-04-25T18:17:41.757Z,7.06
2023-04-25T18:20:13.964Z,7.16
2023-04-25T18:22:43.551Z,7.37
2023-04-25T18:25:13.667Z,7.22
2023-04-25T18:27:42.693Z,7.28
2023-04-25T18:30:14.126Z,6.94
2023-04-25T18:32:43.435Z,7.16
2023-04-25T18:35:12.491Z,7.33
2023-04-25T18:37:42.374Z,7.21
2023-04-25T18:40:14.169Z,7.31
2023-04-25T18:42:43.396Z,7.20
2023-04-25T18:45:13.977Z,7.23
2023-04-25T18:47:42.968Z,6.91
2023-04-25T18:50:13.003Z,7.11
2023-04-25T18:52:41.988Z,7.02
2023-04-25T18:55:11.702Z,7.13
2023-04-25T18:57:40.789Z,7.15
2023-04-25T19:00:11.395Z,7.03
2023-04-25T19:02:42.055Z,7.22
2023-04-25T19:05:11.676Z,7.27
2023-04-25T19:07:40.650Z,7.04
2023-04-25T19:10:10.432Z,7.23
2023-04-25T19:12:39.504Z,7.18
2023-04-25T19:15:09.986Z,7.27
2023-04-25T19:17:38.956Z,7.10
2023-04-25T19:20:11.695Z,7.17
2023-04-25T19:22:40.250Z,7.21
2023-04-25T19:25:11.137Z,7.14
2023-04-25T19:27:40.615Z,7.23
2023-04-25T19:30:10.940Z,7.20
2023-04-25T19:32:40.210Z,7.06
2023-04-25T19:35:12.007Z,7.12
2023-04-25T19:37:46.292Z,7.01
2023-04-25T19:40:16.475Z,6.80
2023-04-25T19:42:45.548Z,6.83
2023-04-25T19:45:14.796Z,6.91
2023-04-25T19:47:43.923Z,6.85
2023-04-25T19:50:14.551Z,7.06
2023-04-25T19:52:43.127Z,7.09
2023-04-25T19:55:12.250Z,7.03
2023-04-25T19:57:41.391Z,6.87
2023-04-25T20:00:12.975Z,6.72
2023-04-25T20:02:42.308Z,6.85
2023-04-25T20:05:12.380Z,6.68
2023-04-25T20:07:42.603Z,7.00
2023-04-25T20:10:14.153Z,6.94
2023-04-25T20:12:43.128Z,7.08
2023-04-25T20:15:12.744Z,7.08
2023-04-25T20:17:42.673Z,7.01
2023-04-25T20:20:13.055Z,7.10
2023-04-25T20:22:43.056Z,7.05
2023-04-25T20:25:13.625Z,7.09
2023-04-25T20:27:42.524Z,7.04
2023-04-25T20:30:13.719Z,7.06
2023-04-25T20:32:42.960Z,7.11
2023-04-25T20:35:12.705Z,7.09
2023-04-25T20:37:42.688Z,7.04
2023-04-25T20:40:12.034Z,6.97
2023-04-25T20:42:40.977Z,6.80
2023-04-25T20:45:13.419Z,6.86
2023-04-25T20:47:42.926Z,6.83
2023-04-25T20:50:12.532Z,6.77
2023-04-25T20:52:43.289Z,6.57
2023-04-25T20:55:13.561Z,6.62
2023-04-25T20:57:42.474Z,6.67
2023-04-25T21:00:17.900Z,6.58
2023-04-25T21:02:47.796Z,6.52
2023-04-25T21:05:16.911Z,6.49
2023-04-25T21:07:47.011Z,6.61
2023-04-25T21:10:16.117Z,6.55
2023-04-25T21:12:49.601Z,6.48
2023-04-25T21:15:20.527Z,6.69
2023-04-25T21:17:49.673Z,6.58
2023-04-25T21:20:20.801Z,6.50
2023-04-25T21:22:54.177Z,6.46
2023-04-25T21:25:31.113Z,6.52
2023-04-25T21:28:02.445Z,6.49
2023-04-25T21:30:31.681Z,6.37
2023-04-25T21:33:00.734Z,6.33
2023-04-25T21:35:29.642Z,6.21
2023-04-25T21:37:59.870Z,6.29
2023-04-25T21:40:28.687Z,6.39
2023-04-25T21:42:57.599Z,6.33
2023-04-25T21:45:26.613Z,6.47
2023-04-25T21:47:55.514Z,6.19
2023-04-25T21:50:24.700Z,6.34
2023-04-25T21:52:54.216Z,6.19
2023-04-25T21:55:24.588Z,6.21
2023-04-25T21:57:53.456Z,6.28
2023-04-25T22:00:24.877Z,6.35
2023-04-25T22:02:55.517Z,6.28
2023-04-25T22:05:26.605Z,6.33
2023-04-25T22:07:57.151Z,6.47
2023-04-25T22:10:27.489Z,6.50
2023-04-25T22:12:56.082Z,6.19
2023-04-25T22:15:24.990Z,6.07
2023-04-25T22:17:55.630Z,6.26
2023-04-25T22:20:26.647Z,6.49
2023-04-25T22:22:56.597Z,6.41
2023-04-25T22:25:27.106Z,6.34
2023-04-25T22:27:57.355Z,6.31
2023-04-25T22:30:26.037Z,6.71
2023-04-25T22:32:54.916Z,6.61
2023-04-25T22:35:24.180Z,6.59
2023-04-25T22:37:53.235Z,6.44
2023-04-25T22:40:22.223Z,6.47
2023-04-25T22:42:52.496Z,6.60
2023-04-25T22:45:21.928Z,6.47
2023-04-25T22:47:50.823Z,6.36
2023-04-25T22:50:20.382Z,6.36
2023-04-25T22:52:49.218Z,6.49
2023-04-25T22:55:18.110Z,6.53
2023-04-25T22:57:46.925Z,6.51
2023-04-25T23:00:20.194Z,6.57
2023-04-25T23:02:50.441Z,6.55
2023-04-25T23:05:20.046Z,6.78
2023-04-25T23:07:48.509Z,6.78
2023-04-25T23:10:18.771Z,6.66
2023-04-25T23:12:47.621Z,6.68
2023-04-25T23:15:18.083Z,6.64
2023-04-25T23:17:47.126Z,6.67
2023-04-25T23:20:16.195Z,6.56
2023-04-25T23:22:45.060Z,6.46
2023-04-25T23:25:14.302Z,6.23
2023-04-25T23:27:43.186Z,6.16
2023-04-25T23:30:12.812Z,6.39
2023-04-25T23:32:43.359Z,6.18
2023-04-25T23:35:12.511Z,5.96
2023-04-25T23:37:41.485Z,5.88
2023-04-25T23:40:12.295Z,6.03
2023-04-25T23:42:42.227Z,6.04
2023-04-25T23:45:14.424Z,5.90
2023-04-25T23:47:44.837Z,5.81
2023-04-25T23:50:13.956Z,5.75
2023-04-25T23:52:42.432Z,5.86
2023-04-25T23:55:11.439Z,6.03
2023-04-25T23:57:40.204Z,5.98
